createdAt,value
2018-08-09T00:01:58.689Z,100011.19
2018-08-09T00:07:02.201Z,100015.82
2018-08-09T00:12:05.687Z,100020.20
2018-08-09T00:17:09.173Z,100028.80
2018-08-09T00:22:12.636Z,100030.19
2018-08-09T00:27:16.145Z,100031.52
2018-08-09T00:32:19.628Z,100028.70
2018-08-09T00:37:23.131Z,100031.38
2018-08-09T00:42:26.650Z,100035.27
2018-08-09T00:47:30.163Z,100036.48
2018-08-09T00:52:33.703Z,100031.61
2018-08-09T00:57:37.219Z,100028.52
2018-08-09T01:02:40.758Z,100025.83
2018-08-09T01:07:44.309Z,100025.63
2018-08-09T01:12:47.797Z,100027.01
2018-08-09T01:17:51.274Z,100024.44
2018-08-09T01:22:54.749Z,100029.55
2018-08-09T01:27:58.217Z,100031.69
2018-08-09T01:33:01.724Z,100036.59
2018-08-09T01:38:05.253Z,100039.37
2018-08-09T01:43:20.028Z,100041.64
2018-08-09T01:48:23.989Z,100040.75
2018-08-09T01:53:27.475Z,100041.83
2018-08-09T01:58:30.980Z,100047.52
2018-08-09T02:03:35.605Z,100042.61
2018-08-09T02:08:39.111Z,100043.98
2018-08-09T02:13:43.337Z,100050.78
2018-08-09T02:18:46.886Z,100058.69
2018-08-09T02:23:50.354Z,100047.84
2018-08-09T02:28:53.970Z,100053.31
2018-08-09T02:33:58.012Z,100056.06
2018-08-09T02:39:09.554Z,100054.41
2018-08-09T02:44:13.337Z,100052.80
2018-08-09T02:49:16.838Z,100058.23
2018-08-09T02:54:20.604Z,100060.20
2018-08-09T02:59:24.124Z,100062.12
2018-08-09T03:04:27.613Z,100065.62
2018-08-09T03:09:31.134Z,100072.11
2018-08-09T03:14:34.595Z,100077.02
2018-08-09T03:19:38.087Z,100082.67
2018-08-09T03:24:41.654Z,100079.45
2018-08-09T03:29:45.241Z,100073.76
2018-08-09T03:34:48.770Z,100085.94
2018-08-09T03:39:52.334Z,100083.20
2018-08-09T03:44:55.903Z,100084.55
2018-08-09T03:49:59.391Z,100087.27
2018-08-09T03:55:06.584Z,100091.37
2018-08-09T04:00:10.478Z,100079.70
2018-08-09T04:05:14.001Z,100077.23
2018-08-09T04:10:17.564Z,100078.31
2018-08-09T04:15:21.057Z,100086.72
2018-08-09T04:20:24.582Z,100076.98
2018-08-09T04:25:28.120Z,100081.01
2018-08-09T04:30:31.537Z,100093.95
2018-08-09T04:35:34.963Z,100092.31
2018-08-09T04:40:39.290Z,100095.59
2018-08-09T04:45:42.868Z,100104.00
2018-08-09T04:50:46.390Z,100114.55
2018-08-09T04:55:49.944Z,100099.42
2018-08-09T05:00:53.799Z,100097.25
2018-08-09T05:05:57.327Z,100101.05
2018-08-09T05:11:00.784Z,100114.31
2018-08-09T05:16:04.313Z,100119.48
2018-08-09T05:21:08.046Z,100123.05
2018-08-09T05:26:11.537Z,100120.06
2018-08-09T05:31:15.065Z,100110.30
2018-08-09T05:36:18.650Z,100106.24
2018-08-09T05:41:22.192Z,100097.05
2018-08-09T05:46:25.792Z,100101.08
2018-08-09T05:51:29.383Z,100106.20
2018-08-09T05:56:33.084Z,100103.22
2018-08-09T06:01:36.578Z,100102.61
2018-08-09T06:06:40.160Z,100112.87
2018-08-09T06:11:43.678Z,100107.10
2018-08-09T06:16:47.224Z,100108.39
2018-08-09T06:21:50.830Z,100114.32
2018-08-09T06:26:54.395Z,100119.70
2018-08-09T06:31:58.026Z,100124.78
2018-08-09T06:37:01.538Z,100118.45
2018-08-09T06:42:05.122Z,100114.84
2018-08-09T06:47:08.731Z,100110.66
2018-08-09T06:52:12.197Z,100121.48
2018-08-09T06:57:15.688Z,100120.05
2018-08-09T07:02:19.268Z,100115.89
2018-08-09T07:07:22.781Z,100111.69
2018-08-09T07:12:26.485Z,100113.77
2018-08-09T07:17:29.973Z,100115.83
2018-08-09T07:22:33.905Z,100117.67
2018-08-09T07:27:37.716Z,100111.53
2018-08-09T07:32:42.063Z,100109.16
2018-08-09T07:37:45.576Z,100111.33
2018-08-09T07:42:49.090Z,100105.52
2018-08-09T07:47:52.634Z,100102.05
2018-08-09T07:52:56.162Z,100101.94
2018-08-09T07:57:59.697Z,100097.38
2018-08-09T08:03:03.224Z,100096.41
2018-08-09T08:08:06.717Z,100093.52
2018-08-09T08:13:10.293Z,100089.77
2018-08-09T08:18:13.805Z,100085.39
2018-08-09T08:23:17.398Z,100081.86
2018-08-09T08:28:21.022Z,100073.20
2018-08-09T08:33:24.604Z,100072.40
2018-08-09T08:38:28.178Z,100068.59
2018-08-09T08:43:31.709Z,100065.38
2018-08-09T08:48:35.200Z,100059.73
2018-08-09T08:53:38.718Z,100066.91
2018-08-09T08:58:42.207Z,100056.30
2018-08-09T09:03:45.733Z,100039.77
2018-08-09T09:08:49.329Z,100038.98
2018-08-09T09:13:52.828Z,100023.28
2018-08-09T09:18:56.400Z,100020.59
2018-08-09T09:23:59.895Z,100007.48
2018-08-09T09:29:03.440Z,100002.34
2018-08-09T09:34:06.903Z,100001.38
2018-08-09T09:39:10.959Z,99989.86
2018-08-09T09:44:14.463Z,99984.04
2018-08-09T09:49:18.014Z,99972.31
2018-08-09T09:54:21.491Z,99964.51
2018-08-09T09:59:24.985Z,99958.38
2018-08-09T10:04:28.496Z,99948.53
2018-08-09T10:09:32.030Z,99937.94
2018-08-09T10:14:35.509Z,99929.12
2018-08-09T10:19:39.069Z,99919.97
2018-08-09T10:24:42.641Z,99908.59
2018-08-09T10:29:46.252Z,99905.97
2018-08-09T10:34:49.793Z,99892.04
2018-08-09T10:39:54.317Z,99887.84
2018-08-09T10:44:57.900Z,99876.72
2018-08-09T10:50:02.106Z,99870.73
2018-08-09T10:55:05.575Z,99869.45
2018-08-09T11:00:11.425Z,99856.89
2018-08-09T11:05:14.873Z,99850.38
2018-08-09T11:10:18.362Z,99839.19
2018-08-09T11:15:21.891Z,99830.47
2018-08-09T11:20:25.331Z,99823.80
2018-08-09T11:25:28.868Z,99814.48
2018-08-09T11:30:32.622Z,99820.61
2018-08-09T11:35:36.303Z,99809.70
2018-08-09T11:40:39.837Z,99814.27
2018-08-09T11:45:43.369Z,99802.63
2018-08-09T11:50:46.990Z,99784.30
2018-08-09T11:55:50.563Z,99774.13
2018-08-09T12:00:54.098Z,99771.12
2018-08-09T12:05:57.757Z,99754.56
2018-08-09T12:11:01.285Z,99758.20
2018-08-09T12:16:05.232Z,99755.30
2018-08-09T12:21:08.928Z,99738.19
2018-08-09T12:26:12.661Z,99720.96
2018-08-09T12:31:16.372Z,99700.03
2018-08-09T12:36:20.026Z,99691.89
2018-08-09T12:41:23.544Z,99677.86
2018-08-09T12:46:27.122Z,99673.23
2018-08-09T12:51:30.694Z,99661.84
2018-08-09T12:56:34.201Z,99672.27
2018-08-09T13:01:37.747Z,99650.91
2018-08-09T13:06:41.444Z,99661.19
2018-08-09T13:11:45.069Z,99634.55
2018-08-09T13:16:48.718Z,99624.16
2018-08-09T13:21:52.220Z,99620.80
2018-08-09T13:26:55.730Z,99603.38
2018-08-09T13:31:59.308Z,99601.20
2018-08-09T13:37:02.870Z,99578.48
2018-08-09T13:42:07.070Z,99569.77
2018-08-09T13:47:10.733Z,99567.84
2018-08-09T13:52:14.329Z,99557.09
2018-08-09T13:57:17.905Z,99543.67
2018-08-09T14:02:21.587Z,99539.83
2018-08-09T14:07:25.144Z,99538.05
2018-08-09T14:12:28.757Z,99517.84
2018-08-09T14:17:32.306Z,99511.19
2018-08-09T14:22:35.872Z,99512.10
2018-08-09T14:27:39.435Z,99503.08
2018-08-09T14:32:44.621Z,99500.95
2018-08-09T14:37:48.283Z,99498.09
2018-08-09T14:42:51.773Z,99494.38
2018-08-09T14:47:55.285Z,99476.34
2018-08-09T14:52:58.819Z,99475.66
2018-08-09T14:58:02.342Z,99477.55
2018-08-09T15:03:05.946Z,99471.13
2018-08-09T15:08:09.638Z,99480.42
2018-08-09T15:13:13.190Z,99475.34
2018-08-09T15:18:16.749Z,99472.76
2018-08-09T15:23:20.309Z,99474.14
2018-08-09T15:28:24.069Z,99485.76
2018-08-09T15:33:27.627Z,99476.32
2018-08-09T15:38:31.379Z,99471.86
2018-08-09T15:43:35.027Z,99467.44
2018-08-09T15:48:38.906Z,99476.63
2018-08-09T15:53:42.533Z,99471.94
2018-08-09T15:58:46.117Z,99460.09
2018-08-09T16:03:49.646Z,99456.42
2018-08-09T16:08:53.269Z,99454.02
2018-08-09T16:13:56.781Z,99460.30
2018-08-09T16:19:00.295Z,99452.73
2018-08-09T16:24:04.073Z,99443.41
2018-08-09T16:29:07.991Z,99444.59
2018-08-09T16:34:11.510Z,99453.05
2018-08-09T16:39:15.267Z,99437.66
2018-08-09T16:44:18.952Z,99435.67
2018-08-09T16:49:22.565Z,99435.39
2018-08-09T16:54:26.315Z,99434.82
2018-08-09T16:59:30.021Z,99426.23
2018-08-09T17:04:33.964Z,99424.27
2018-08-09T17:09:37.705Z,99417.03
2018-08-09T17:14:41.868Z,99407.53
2018-08-09T17:19:45.586Z,99409.38
2018-08-09T17:24:49.247Z,99405.10
2018-08-09T17:29:52.811Z,99411.63
2018-08-09T17:34:56.449Z,99414.16
2018-08-09T17:39:59.992Z,99412.47
2018-08-09T17:45:04.368Z,99409.53
2018-08-09T17:50:08.425Z,99402.14
2018-08-09T17:55:13.944Z,99400.09
2018-08-09T18:00:26.764Z,99402.52
2018-08-09T18:05:31.623Z,99420.22
2018-08-09T18:10:36.580Z,99520.11
2018-08-09T18:15:40.093Z,99559.44
2018-08-09T18:20:43.981Z,99571.07
2018-08-09T18:25:51.957Z,99560.48
2018-08-09T18:30:56.172Z,99566.78
2018-08-09T18:35:59.640Z,99607.54
2018-08-09T18:51:54.521Z,99596.73
2018-08-09T18:57:00.784Z,99607.99
2018-08-09T19:02:06.874Z,99608.86
2018-08-09T19:07:12.438Z,99614.17
2018-08-09T19:12:16.029Z,99625.78
2018-08-09T19:17:20.683Z,99647.27
2018-08-09T19:22:24.490Z,99659.64
2018-08-09T19:27:28.126Z,99650.42
2018-08-09T19:32:32.453Z,99635.28
2018-08-09T19:37:35.993Z,99632.05
2018-08-09T19:42:40.354Z,99635.13
2018-08-09T19:47:43.999Z,99652.26
2018-08-09T19:52:47.622Z,99666.80
2018-08-09T19:57:51.612Z,99679.11
2018-08-09T20:02:55.188Z,99687.70
2018-08-09T20:07:58.802Z,99698.53
2018-08-09T20:13:02.345Z,99714.98
2018-08-09T20:18:05.885Z,99729.69
2018-08-09T20:23:10.256Z,99750.09
2018-08-09T20:28:14.294Z,99757.53
2018-08-09T20:33:18.442Z,99771.13
2018-08-09T20:38:21.935Z,99772.80
2018-08-09T20:43:25.524Z,99787.31
2018-08-09T20:48:29.262Z,99792.23
2018-08-09T20:53:33.143Z,99801.08
2018-08-09T20:58:38.028Z,99813.31
2018-08-09T21:03:42.690Z,99816.32
2018-08-09T21:08:46.193Z,99825.33
2018-08-09T21:13:49.798Z,99841.97
2018-08-09T21:18:53.537Z,99848.09
2018-08-09T21:23:57.583Z,99857.41
2018-08-09T21:29:01.049Z,99862.59
2018-08-09T21:34:04.773Z,99868.88
2018-08-09T21:39:10.680Z,99875.94
2018-08-09T21:44:14.268Z,99889.08
2018-08-09T21:49:17.740Z,99897.05
2018-08-09T21:54:21.241Z,99902.85
2018-08-09T21:59:24.841Z,99916.75
2018-08-09T22:04:28.399Z,99910.05
2018-08-09T22:09:37.291Z,99915.16
2018-08-09T22:14:46.433Z,99914.36
2018-08-09T22:20:01.881Z,99928.14
2018-08-09T22:25:07.865Z,99936.89
2018-08-09T22:30:14.942Z,99947.50
2018-08-09T22:35:18.510Z,99959.34
2018-08-09T22:40:22.986Z,99970.63
2018-08-09T22:45:26.515Z,99984.52
2018-08-09T22:50:30.081Z,100001.48
2018-08-09T22:55:33.905Z,100005.88
2018-08-09T23:00:37.392Z,100016.81
2018-08-09T23:05:41.061Z,100024.69
2018-08-09T23:10:45.179Z,100023.70
2018-08-09T23:15:48.762Z,100030.14
2018-08-09T23:20:52.308Z,100031.27
2018-08-09T23:25:55.849Z,100036.72
2018-08-09T23:31:00.275Z,100043.70
2018-08-09T23:36:03.799Z,100047.98
2018-08-09T23:41:07.450Z,100054.03
2018-08-09T23:46:10.939Z,100053.68
2018-08-09T23:51:14.425Z,100055.84
2018-08-09T23:56:18.002Z,100052.97
